sensor_id;sensor_type;location;lat;lon;timestamp;P1;durP1;ratioP1;P2;durP2;ratioP2
14740;SDS011;7462;53.530;9.414;2023-04-05T00:01:11;8.03;;;5.87;;
14740;SDS011;7462;53.530;9.414;2023-04-05T00:03:39;6.80;;;5.60;;
14740;SDS011;7462;53.530;9.414;2023-04-05T00:06:09;7.23;;;6.23;;
14740;SDS011;7462;53.530;9.414;2023-04-05T00:08:38;11.10;;;6.33;;
14740;SDS011;7462;53.530;9.414;2023-04-05T00:11:07;9.80;;;5.20;;
14740;SDS011;7462;53.530;9.414;2023-04-05T00:13:36;6.93;;;5.33;;
14740;SDS011;7462;53.530;9.414;2023-04-05T00:16:04;10.57;;;6.10;;
14740;SDS011;7462;53.530;9.414;2023-04-05T00:18:33;8.47;;;6.00;;
14740;SDS011;7462;53.530;9.414;2023-04-05T00:21:04;6.80;;;4.70;;
14740;SDS011;7462;53.530;9.414;2023-04-05T00:23:32;10.50;;;5.97;;
14740;SDS011;7462;53.530;9.414;2023-04-05T00:26:03;8.10;;;5.97;;
14740;SDS011;7462;53.530;9.414;2023-04-05T00:28:33;6.07;;;4.37;;
14740;SDS011;7462;53.530;9.414;2023-04-05T00:31:02;6.87;;;5.00;;
14740;SDS011;7462;53.530;9.414;2023-04-05T00:33:30;4.57;;;3.93;;
14740;SDS011;7462;53.530;9.414;2023-04-05T00:36:06;6.43;;;4.93;;
14740;SDS011;7462;53.530;9.414;2023-04-05T00:38:36;4.73;;;4.23;;
14740;SDS011;7462;53.530;9.414;2023-04-05T00:41:04;7.27;;;5.13;;
14740;SDS011;7462;53.530;9.414;2023-04-05T00:43:34;6.43;;;4.47;;
14740;SDS011;7462;53.530;9.414;2023-04-05T00:46:02;5.37;;;4.53;;
14740;SDS011;7462;53.530;9.414;2023-04-05T00:48:31;7.43;;;5.13;;
14740;SDS011;7462;53.530;9.414;2023-04-05T00:50:59;6.33;;;4.70;;
14740;SDS011;7462;53.530;9.414;2023-04-05T00:53:29;7.53;;;5.03;;
14740;SDS011;7462;53.530;9.414;2023-04-05T00:55:58;5.30;;;4.67;;
14740;SDS011;7462;53.530;9.414;2023-04-05T00:58:26;6.67;;;4.40;;
14740;SDS011;7462;53.530;9.414;2023-04-05T01:00:59;6.87;;;5.10;;
14740;SDS011;7462;53.530;9.414;2023-04-05T01:03:33;8.80;;;5.00;;
14740;SDS011;7462;53.530;9.414;2023-04-05T01:06:08;7.50;;;5.07;;
14740;SDS011;7462;53.530;9.414;2023-04-05T01:08:48;6.77;;;5.00;;
14740;SDS011;7462;53.530;9.414;2023-04-05T01:11:22;6.17;;;4.00;;
14740;SDS011;7462;53.530;9.414;2023-04-05T01:13:56;5.47;;;4.10;;
14740;SDS011;7462;53.530;9.414;2023-04-05T01:16:27;6.20;;;4.17;;
14740;SDS011;7462;53.530;9.414;2023-04-05T01:18:55;7.00;;;4.03;;
14740;SDS011;7462;53.530;9.414;2023-04-05T01:21:40;5.20;;;4.20;;
14740;SDS011;7462;53.530;9.414;2023-04-05T01:24:28;4.80;;;3.87;;
14740;SDS011;7462;53.530;9.414;2023-04-05T01:27:06;6.30;;;4.10;;
14740;SDS011;7462;53.530;9.414;2023-04-05T01:29:48;5.97;;;3.97;;
14740;SDS011;7462;53.530;9.414;2023-04-05T01:32:31;7.17;;;4.53;;
14740;SDS011;7462;53.530;9.414;2023-04-05T01:35:21;4.60;;;3.20;;
14740;SDS011;7462;53.530;9.414;2023-04-05T01:37:56;5.03;;;3.20;;
14740;SDS011;7462;53.530;9.414;2023-04-05T01:40:27;4.80;;;3.93;;
14740;SDS011;7462;53.530;9.414;2023-04-05T01:42:56;6.40;;;3.93;;
14740;SDS011;7462;53.530;9.414;2023-04-05T01:45:28;4.77;;;3.20;;
14740;SDS011;7462;53.530;9.414;2023-04-05T01:47:56;4.13;;;3.23;;
14740;SDS011;7462;53.530;9.414;2023-04-05T01:50:24;5.40;;;4.00;;
14740;SDS011;7462;53.530;9.414;2023-04-05T01:52:52;6.80;;;4.30;;
14740;SDS011;7462;53.530;9.414;2023-04-05T01:55:20;5.63;;;3.13;;
14740;SDS011;7462;53.530;9.414;2023-04-05T01:57:49;4.17;;;3.20;;
14740;SDS011;7462;53.530;9.414;2023-04-05T02:00:18;4.50;;;3.20;;
14740;SDS011;7462;53.530;9.414;2023-04-05T02:02:47;5.53;;;2.97;;
14740;SDS011;7462;53.530;9.414;2023-04-05T02:05:15;4.50;;;3.10;;
14740;SDS011;7462;53.530;9.414;2023-04-05T02:07:43;5.30;;;3.57;;
14740;SDS011;7462;53.530;9.414;2023-04-05T02:10:12;5.60;;;3.63;;
14740;SDS011;7462;53.530;9.414;2023-04-05T02:12:41;4.57;;;3.27;;
14740;SDS011;7462;53.530;9.414;2023-04-05T02:15:11;3.67;;;3.23;;
14740;SDS011;7462;53.530;9.414;2023-04-05T02:17:39;6.43;;;3.63;;
14740;SDS011;7462;53.530;9.414;2023-04-05T02:20:12;4.80;;;3.60;;
14740;SDS011;7462;53.530;9.414;2023-04-05T02:22:40;5.23;;;3.80;;
14740;SDS011;7462;53.530;9.414;2023-04-05T02:25:10;5.03;;;3.50;;
14740;SDS011;7462;53.530;9.414;2023-04-05T02:27:39;4.87;;;3.30;;
14740;SDS011;7462;53.530;9.414;2023-04-05T02:30:07;5.90;;;3.57;;
14740;SDS011;7462;53.530;9.414;2023-04-05T02:32:40;5.47;;;3.30;;
14740;SDS011;7462;53.530;9.414;2023-04-05T02:35:10;5.50;;;3.63;;
14740;SDS011;7462;53.530;9.414;2023-04-05T02:37:40;4.63;;;3.40;;
14740;SDS011;7462;53.530;9.414;2023-04-05T02:40:10;7.07;;;3.67;;
14740;SDS011;7462;53.530;9.414;2023-04-05T02:42:40;4.90;;;4.00;;
14740;SDS011;7462;53.530;9.414;2023-04-05T02:45:09;6.27;;;4.57;;
14740;SDS011;7462;53.530;9.414;2023-04-05T02:47:38;6.93;;;4.87;;
14740;SDS011;7462;53.530;9.414;2023-04-05T02:50:06;7.43;;;5.30;;
14740;SDS011;7462;53.530;9.414;2023-04-05T02:52:42;7.20;;;4.77;;
14740;SDS011;7462;53.530;9.414;2023-04-05T02:55:10;10.37;;;5.50;;
14740;SDS011;7462;53.530;9.414;2023-04-05T02:57:38;9.50;;;5.93;;
14740;SDS011;7462;53.530;9.414;2023-04-05T03:00:19;9.57;;;6.33;;
14740;SDS011;7462;53.530;9.414;2023-04-05T03:02:49;8.00;;;6.37;;
14740;SDS011;7462;53.530;9.414;2023-04-05T03:05:18;9.77;;;5.57;;
14740;SDS011;7462;53.530;9.414;2023-04-05T03:07:52;8.77;;;5.97;;
14740;SDS011;7462;53.530;9.414;2023-04-05T03:10:25;12.60;;;6.47;;
14740;SDS011;7462;53.530;9.414;2023-04-05T03:13:02;9.23;;;5.53;;
14740;SDS011;7462;53.530;9.414;2023-04-05T03:15:30;6.70;;;5.57;;
14740;SDS011;7462;53.530;9.414;2023-04-05T03:18:04;8.63;;;5.90;;
14740;SDS011;7462;53.530;9.414;2023-04-05T03:20:33;8.20;;;6.30;;
14740;SDS011;7462;53.530;9.414;2023-04-05T03:23:13;8.90;;;5.43;;
14740;SDS011;7462;53.530;9.414;2023-04-05T03:25:42;8.93;;;6.00;;
14740;SDS011;7462;53.530;9.414;2023-04-05T03:28:11;6.73;;;5.50;;
14740;SDS011;7462;53.530;9.414;2023-04-05T03:30:43;8.87;;;6.10;;
14740;SDS011;7462;53.530;9.414;2023-04-05T03:33:16;9.33;;;5.90;;
14740;SDS011;7462;53.530;9.414;2023-04-05T03:35:47;7.47;;;5.87;;
14740;SDS011;7462;53.530;9.414;2023-04-05T03:38:17;9.63;;;6.30;;
14740;SDS011;7462;53.530;9.414;2023-04-05T03:41:04;8.77;;;5.40;;
14740;SDS011;7462;53.530;9.414;2023-04-05T03:43:33;7.33;;;5.90;;
14740;SDS011;7462;53.530;9.414;2023-04-05T03:46:01;7.53;;;6.07;;
14740;SDS011;7462;53.530;9.414;2023-04-05T03:48:30;7.70;;;6.13;;
14740;SDS011;7462;53.530;9.414;2023-04-05T03:50:58;7.90;;;6.23;;
14740;SDS011;7462;53.530;9.414;2023-04-05T03:53:27;8.20;;;6.03;;
14740;SDS011;7462;53.530;9.414;2023-04-05T03:55:57;10.53;;;7.00;;
14740;SDS011;7462;53.530;9.414;2023-04-05T03:58:37;8.30;;;6.20;;
14740;SDS011;7462;53.530;9.414;2023-04-05T04:01:07;10.27;;;7.57;;
14740;SDS011;7462;53.530;9.414;2023-04-05T04:03:36;8.60;;;6.40;;
14740;SDS011;7462;53.530;9.414;2023-04-05T04:06:05;8.70;;;6.90;;
14740;SDS011;7462;53.530;9.414;2023-04-05T04:08:35;10.33;;;6.33;;
14740;SDS011;7462;53.530;9.414;2023-04-05T04:11:03;8.27;;;6.00;;
14740;SDS011;7462;53.530;9.414;2023-04-05T04:13:36;12.00;;;6.93;;
14740;SDS011;7462;53.530;9.414;2023-04-05T04:16:27;10.57;;;7.03;;
14740;SDS011;7462;53.530;9.414;2023-04-05T04:19:14;8.27;;;6.03;;
14740;SDS011;7462;53.530;9.414;2023-04-05T04:22:02;11.33;;;6.93;;
14740;SDS011;7462;53.530;9.414;2023-04-05T04:24:51;8.43;;;6.07;;
14740;SDS011;7462;53.530;9.414;2023-04-05T04:27:52;9.83;;;6.73;;
14740;SDS011;7462;53.530;9.414;2023-04-05T04:30:41;8.53;;;5.10;;
14740;SDS011;7462;53.530;9.414;2023-04-05T04:33:33;9.17;;;5.53;;
14740;SDS011;7462;53.530;9.414;2023-04-05T04:36:28;7.70;;;4.90;;
14740;SDS011;7462;53.530;9.414;2023-04-05T04:39:19;6.30;;;4.47;;
14740;SDS011;7462;53.530;9.414;2023-04-05T04:42:09;9.00;;;5.27;;
14740;SDS011;7462;53.530;9.414;2023-04-05T04:44:56;6.63;;;4.77;;
14740;SDS011;7462;53.530;9.414;2023-04-05T04:47:51;6.77;;;4.60;;
14740;SDS011;7462;53.530;9.414;2023-04-05T04:50:33;7.87;;;4.63;;
14740;SDS011;7462;53.530;9.414;2023-04-05T04:53:03;7.97;;;5.17;;
14740;SDS011;7462;53.530;9.414;2023-04-05T04:55:31;9.47;;;4.77;;
14740;SDS011;7462;53.530;9.414;2023-04-05T04:58:02;6.40;;;5.17;;
14740;SDS011;7462;53.530;9.414;2023-04-05T05:00:37;7.33;;;4.40;;
14740;SDS011;7462;53.530;9.414;2023-04-05T05:03:05;7.47;;;4.73;;
14740;SDS011;7462;53.530;9.414;2023-04-05T05:05:40;10.03;;;4.90;;
14740;SDS011;7462;53.530;9.414;2023-04-05T05:08:09;6.87;;;4.73;;
14740;SDS011;7462;53.530;9.414;2023-04-05T05:10:39;7.87;;;4.90;;
14740;SDS011;7462;53.530;9.414;2023-04-05T05:13:09;9.13;;;5.17;;
14740;SDS011;7462;53.530;9.414;2023-04-05T05:15:38;7.37;;;5.00;;
14740;SDS011;7462;53.530;9.414;2023-04-05T05:18:07;7.00;;;4.63;;
14740;SDS011;7462;53.530;9.414;2023-04-05T05:20:35;6.10;;;4.60;;
14740;SDS011;7462;53.530;9.414;2023-04-05T05:23:04;7.30;;;5.03;;
14740;SDS011;7462;53.530;9.414;2023-04-05T05:25:32;7.27;;;4.83;;
14740;SDS011;7462;53.530;9.414;2023-04-05T05:28:01;6.73;;;4.60;;
14740;SDS011;7462;53.530;9.414;2023-04-05T05:30:31;7.57;;;4.70;;
14740;SDS011;7462;53.530;9.414;2023-04-05T05:32:59;8.27;;;4.80;;
14740;SDS011;7462;53.530;9.414;2023-04-05T05:35:27;6.17;;;4.47;;
14740;SDS011;7462;53.530;9.414;2023-04-05T05:37:55;6.57;;;4.30;;
14740;SDS011;7462;53.530;9.414;2023-04-05T05:40:23;8.60;;;5.30;;
14740;SDS011;7462;53.530;9.414;2023-04-05T05:42:52;6.13;;;4.67;;
14740;SDS011;7462;53.530;9.414;2023-04-05T05:45:20;6.40;;;4.47;;
14740;SDS011;7462;53.530;9.414;2023-04-05T05:47:49;6.87;;;4.67;;
14740;SDS011;7462;53.530;9.414;2023-04-05T05:50:18;5.90;;;5.00;;
14740;SDS011;7462;53.530;9.414;2023-04-05T05:52:46;7.87;;;5.47;;
14740;SDS011;7462;53.530;9.414;2023-04-05T05:55:15;8.67;;;5.70;;
14740;SDS011;7462;53.530;9.414;2023-04-05T05:57:43;9.87;;;5.40;;
14740;SDS011;7462;53.530;9.414;2023-04-05T06:00:12;14.30;;;8.03;;
14740;SDS011;7462;53.530;9.414;2023-04-05T06:02:41;21.47;;;10.93;;
14740;SDS011;7462;53.530;9.414;2023-04-05T06:05:10;20.47;;;11.20;;
14740;SDS011;7462;53.530;9.414;2023-04-05T06:07:38;17.50;;;9.93;;
14740;SDS011;7462;53.530;9.414;2023-04-05T06:10:07;20.00;;;10.77;;
14740;SDS011;7462;53.530;9.414;2023-04-05T06:12:35;17.07;;;9.97;;
14740;SDS011;7462;53.530;9.414;2023-04-05T06:15:04;13.93;;;8.57;;
14740;SDS011;7462;53.530;9.414;2023-04-05T06:17:36;17.53;;;9.93;;
14740;SDS011;7462;53.530;9.414;2023-04-05T06:20:07;17.37;;;9.27;;
14740;SDS011;7462;53.530;9.414;2023-04-05T06:22:38;12.90;;;7.53;;
14740;SDS011;7462;53.530;9.414;2023-04-05T06:25:07;11.73;;;7.77;;
14740;SDS011;7462;53.530;9.414;2023-04-05T06:27:37;14.47;;;9.00;;
14740;SDS011;7462;53.530;9.414;2023-04-05T06:30:06;11.30;;;7.83;;
14740;SDS011;7462;53.530;9.414;2023-04-05T06:32:34;15.23;;;9.47;;
14740;SDS011;7462;53.530;9.414;2023-04-05T06:35:03;14.43;;;8.57;;
14740;SDS011;7462;53.530;9.414;2023-04-05T06:37:32;13.37;;;8.80;;
14740;SDS011;7462;53.530;9.414;2023-04-05T06:40:01;13.50;;;8.50;;
14740;SDS011;7462;53.530;9.414;2023-04-05T06:42:29;12.30;;;8.07;;
14740;SDS011;7462;53.530;9.414;2023-04-05T06:45:02;16.30;;;8.70;;
14740;SDS011;7462;53.530;9.414;2023-04-05T06:47:32;12.40;;;7.50;;
14740;SDS011;7462;53.530;9.414;2023-04-05T06:50:01;10.70;;;6.67;;
14740;SDS011;7462;53.530;9.414;2023-04-05T06:52:31;8.93;;;6.90;;
14740;SDS011;7462;53.530;9.414;2023-04-05T06:54:59;8.83;;;6.73;;
14740;SDS011;7462;53.530;9.414;2023-04-05T06:57:30;9.90;;;6.20;;
14740;SDS011;7462;53.530;9.414;2023-04-05T06:59:58;8.43;;;6.33;;
14740;SDS011;7462;53.530;9.414;2023-04-05T07:02:26;11.07;;;6.27;;
14740;SDS011;7462;53.530;9.414;2023-04-05T07:04:54;9.60;;;6.40;;
14740;SDS011;7462;53.530;9.414;2023-04-05T07:07:28;8.77;;;6.20;;
14740;SDS011;7462;53.530;9.414;2023-04-05T07:09:57;10.97;;;6.50;;
14740;SDS011;7462;53.530;9.414;2023-04-05T07:12:26;11.87;;;5.83;;
14740;SDS011;7462;53.530;9.414;2023-04-05T07:14:54;10.10;;;6.37;;
14740;SDS011;7462;53.530;9.414;2023-04-05T07:17:22;10.53;;;6.20;;
14740;SDS011;7462;53.530;9.414;2023-04-05T07:19:50;8.93;;;5.27;;
14740;SDS011;7462;53.530;9.414;2023-04-05T07:22:19;7.80;;;4.93;;
14740;SDS011;7462;53.530;9.414;2023-04-05T07:24:47;7.13;;;4.40;;
14740;SDS011;7462;53.530;9.414;2023-04-05T07:27:15;6.33;;;3.63;;
14740;SDS011;7462;53.530;9.414;2023-04-05T07:29:44;5.10;;;3.43;;
14740;SDS011;7462;53.530;9.414;2023-04-05T07:32:13;5.73;;;3.23;;
14740;SDS011;7462;53.530;9.414;2023-04-05T07:34:41;7.77;;;3.37;;
14740;SDS011;7462;53.530;9.414;2023-04-05T07:37:09;4.13;;;2.87;;
14740;SDS011;7462;53.530;9.414;2023-04-05T07:39:38;4.20;;;3.00;;
14740;SDS011;7462;53.530;9.414;2023-04-05T07:42:06;5.67;;;2.67;;
14740;SDS011;7462;53.530;9.414;2023-04-05T07:44:34;4.47;;;2.80;;
14740;SDS011;7462;53.530;9.414;2023-04-05T07:47:03;5.60;;;2.60;;
14740;SDS011;7462;53.530;9.414;2023-04-05T07:49:31;7.03;;;3.00;;
14740;SDS011;7462;53.530;9.414;2023-04-05T07:52:00;3.13;;;2.30;;
14740;SDS011;7462;53.530;9.414;2023-04-05T07:54:29;2.47;;;2.00;;
14740;SDS011;7462;53.530;9.414;2023-04-05T07:56:58;4.43;;;2.30;;
14740;SDS011;7462;53.530;9.414;2023-04-05T07:59:28;3.50;;;2.47;;
14740;SDS011;7462;53.530;9.414;2023-04-05T08:01:56;5.70;;;2.43;;
14740;SDS011;7462;53.530;9.414;2023-04-05T08:04:38;5.63;;;2.57;;
14740;SDS011;7462;53.530;9.414;2023-04-05T08:07:07;3.80;;;2.37;;
14740;SDS011;7462;53.530;9.414;2023-04-05T08:09:35;3.47;;;2.37;;
14740;SDS011;7462;53.530;9.414;2023-04-05T08:12:03;4.13;;;2.50;;
14740;SDS011;7462;53.530;9.414;2023-04-05T08:14:32;3.23;;;2.87;;
14740;SDS011;7462;53.530;9.414;2023-04-05T08:17:00;4.90;;;2.40;;
14740;SDS011;7462;53.530;9.414;2023-04-05T08:19:28;3.90;;;2.60;;
14740;SDS011;7462;53.530;9.414;2023-04-05T08:21:57;3.67;;;2.00;;
14740;SDS011;7462;53.530;9.414;2023-04-05T08:24:25;4.70;;;2.60;;
14740;SDS011;7462;53.530;9.414;2023-04-05T08:26:53;4.37;;;2.30;;
14740;SDS011;7462;53.530;9.414;2023-04-05T08:29:21;5.70;;;2.37;;
14740;SDS011;7462;53.530;9.414;2023-04-05T08:31:50;3.60;;;2.43;;
14740;SDS011;7462;53.530;9.414;2023-04-05T08:34:18;4.93;;;2.53;;
14740;SDS011;7462;53.530;9.414;2023-04-05T08:36:46;4.23;;;2.23;;
14740;SDS011;7462;53.530;9.414;2023-04-05T08:39:15;3.70;;;2.43;;
14740;SDS011;7462;53.530;9.414;2023-04-05T08:41:45;6.40;;;2.30;;
14740;SDS011;7462;53.530;9.414;2023-04-05T08:44:19;5.33;;;2.70;;
14740;SDS011;7462;53.530;9.414;2023-04-05T08:46:49;4.17;;;2.97;;
14740;SDS011;7462;53.530;9.414;2023-04-05T08:49:18;5.87;;;2.93;;
14740;SDS011;7462;53.530;9.414;2023-04-05T08:51:46;4.97;;;2.83;;
14740;SDS011;7462;53.530;9.414;2023-04-05T08:54:16;3.83;;;2.50;;
14740;SDS011;7462;53.530;9.414;2023-04-05T08:56:45;4.07;;;2.67;;
14740;SDS011;7462;53.530;9.414;2023-04-05T08:59:15;3.87;;;2.87;;
14740;SDS011;7462;53.530;9.414;2023-04-05T09:01:44;3.20;;;2.77;;
14740;SDS011;7462;53.530;9.414;2023-04-05T09:04:15;5.80;;;4.10;;
14740;SDS011;7462;53.530;9.414;2023-04-05T09:06:47;6.07;;;3.70;;
14740;SDS011;7462;53.530;9.414;2023-04-05T09:09:19;5.63;;;3.93;;
14740;SDS011;7462;53.530;9.414;2023-04-05T09:11:47;6.43;;;4.00;;
14740;SDS011;7462;53.530;9.414;2023-04-05T09:14:16;5.27;;;3.87;;
14740;SDS011;7462;53.530;9.414;2023-04-05T09:16:45;4.77;;;3.33;;
14740;SDS011;7462;53.530;9.414;2023-04-05T09:19:13;5.40;;;3.53;;
14740;SDS011;7462;53.530;9.414;2023-04-05T09:21:57;5.37;;;3.53;;
14740;SDS011;7462;53.530;9.414;2023-04-05T09:24:34;5.07;;;3.27;;
14740;SDS011;7462;53.530;9.414;2023-04-05T09:27:06;6.83;;;3.77;;
14740;SDS011;7462;53.530;9.414;2023-04-05T09:29:36;4.57;;;2.93;;
14740;SDS011;7462;53.530;9.414;2023-04-05T09:32:06;3.90;;;2.77;;
14740;SDS011;7462;53.530;9.414;2023-04-05T09:34:36;4.57;;;2.80;;
14740;SDS011;7462;53.530;9.414;2023-04-05T09:37:11;4.30;;;3.20;;
14740;SDS011;7462;53.530;9.414;2023-04-05T09:39:42;4.77;;;3.03;;
14740;SDS011;7462;53.530;9.414;2023-04-05T09:42:11;3.13;;;2.70;;
14740;SDS011;7462;53.530;9.414;2023-04-05T09:44:47;3.43;;;2.90;;
14740;SDS011;7462;53.530;9.414;2023-04-05T09:47:20;4.20;;;3.07;;
14740;SDS011;7462;53.530;9.414;2023-04-05T09:49:55;4.93;;;3.40;;
14740;SDS011;7462;53.530;9.414;2023-04-05T09:52:23;3.73;;;2.87;;
14740;SDS011;7462;53.530;9.414;2023-04-05T09:54:53;4.60;;;2.80;;
14740;SDS011;7462;53.530;9.414;2023-04-05T09:57:22;4.83;;;3.07;;
14740;SDS011;7462;53.530;9.414;2023-04-05T09:59:52;4.83;;;3.17;;
14740;SDS011;7462;53.530;9.414;2023-04-05T10:02:21;4.30;;;2.60;;
14740;SDS011;7462;53.530;9.414;2023-04-05T10:04:50;5.43;;;3.13;;
14740;SDS011;7462;53.530;9.414;2023-04-05T10:07:18;3.50;;;3.17;;
14740;SDS011;7462;53.530;9.414;2023-04-05T10:09:46;5.70;;;3.30;;
14740;SDS011;7462;53.530;9.414;2023-04-05T10:12:23;5.63;;;3.30;;
14740;SDS011;7462;53.530;9.414;2023-04-05T10:14:53;5.00;;;2.30;;
14740;SDS011;7462;53.530;9.414;2023-04-05T10:17:22;3.20;;;2.67;;
14740;SDS011;7462;53.530;9.414;2023-04-05T10:19:56;3.97;;;2.87;;
14740;SDS011;7462;53.530;9.414;2023-04-05T10:22:35;3.23;;;2.80;;
14740;SDS011;7462;53.530;9.414;2023-04-05T10:25:18;3.63;;;2.67;;
14740;SDS011;7462;53.530;9.414;2023-04-05T10:27:54;4.10;;;3.20;;
14740;SDS011;7462;53.530;9.414;2023-04-05T10:30:33;5.57;;;2.67;;
14740;SDS011;7462;53.530;9.414;2023-04-05T10:33:06;3.77;;;3.00;;
14740;SDS011;7462;53.530;9.414;2023-04-05T10:35:43;3.80;;;2.90;;
14740;SDS011;7462;53.530;9.414;2023-04-05T10:38:19;5.47;;;2.60;;
14740;SDS011;7462;53.530;9.414;2023-04-05T10:43:22;2.93;;;2.63;;
14740;SDS011;7462;53.530;9.414;2023-04-05T10:45:52;4.23;;;3.07;;
14740;SDS011;7462;53.530;9.414;2023-04-05T10:48:25;4.53;;;3.30;;
14740;SDS011;7462;53.530;9.414;2023-04-05T10:51:01;6.30;;;3.43;;
14740;SDS011;7462;53.530;9.414;2023-04-05T10:53:30;5.30;;;3.30;;
14740;SDS011;7462;53.530;9.414;2023-04-05T10:55:59;3.40;;;2.90;;
14740;SDS011;7462;53.530;9.414;2023-04-05T10:58:29;4.03;;;2.97;;
14740;SDS011;7462;53.530;9.414;2023-04-05T11:00:59;4.50;;;2.77;;
14740;SDS011;7462;53.530;9.414;2023-04-05T11:03:45;4.63;;;2.97;;
14740;SDS011;7462;53.530;9.414;2023-04-05T11:06:18;3.33;;;2.70;;
14740;SDS011;7462;53.530;9.414;2023-04-05T11:08:54;4.73;;;3.20;;
14740;SDS011;7462;53.530;9.414;2023-04-05T11:11:25;4.53;;;2.63;;
14740;SDS011;7462;53.530;9.414;2023-04-05T11:13:55;3.50;;;2.70;;
14740;SDS011;7462;53.530;9.414;2023-04-05T11:16:38;3.40;;;2.67;;
14740;SDS011;7462;53.530;9.414;2023-04-05T11:19:07;3.97;;;2.60;;
14740;SDS011;7462;53.530;9.414;2023-04-05T11:21:36;3.90;;;2.60;;
14740;SDS011;7462;53.530;9.414;2023-04-05T11:24:05;4.00;;;3.30;;
14740;SDS011;7462;53.530;9.414;2023-04-05T11:26:53;3.00;;;2.63;;
14740;SDS011;7462;53.530;9.414;2023-04-05T11:32:15;6.73;;;3.00;;
14740;SDS011;7462;53.530;9.414;2023-04-05T11:34:43;5.37;;;2.67;;
14740;SDS011;7462;53.530;9.414;2023-04-05T11:37:29;3.10;;;2.67;;
14740;SDS011;7462;53.530;9.414;2023-04-05T11:40:23;4.53;;;2.40;;
14740;SDS011;7462;53.530;9.414;2023-04-05T11:43:00;3.40;;;3.10;;
14740;SDS011;7462;53.530;9.414;2023-04-05T11:45:30;4.33;;;2.67;;
14740;SDS011;7462;53.530;9.414;2023-04-05T11:47:59;4.50;;;3.10;;
14740;SDS011;7462;53.530;9.414;2023-04-05T11:50:31;4.47;;;2.43;;
14740;SDS011;7462;53.530;9.414;2023-04-05T11:53:09;4.87;;;2.90;;
14740;SDS011;7462;53.530;9.414;2023-04-05T11:55:37;3.90;;;2.80;;
14740;SDS011;7462;53.530;9.414;2023-04-05T11:58:12;4.20;;;2.80;;
14740;SDS011;7462;53.530;9.414;2023-04-05T12:00:42;4.60;;;2.50;;
14740;SDS011;7462;53.530;9.414;2023-04-05T12:03:11;3.83;;;2.43;;
14740;SDS011;7462;53.530;9.414;2023-04-05T12:05:46;3.93;;;2.20;;
14740;SDS011;7462;53.530;9.414;2023-04-05T12:08:16;3.93;;;2.60;;
14740;SDS011;7462;53.530;9.414;2023-04-05T12:10:44;3.13;;;2.60;;
14740;SDS011;7462;53.530;9.414;2023-04-05T12:13:26;2.97;;;2.17;;
14740;SDS011;7462;53.530;9.414;2023-04-05T12:15:57;3.80;;;2.30;;
14740;SDS011;7462;53.530;9.414;2023-04-05T12:18:27;4.40;;;2.40;;
14740;SDS011;7462;53.530;9.414;2023-04-05T12:20:57;3.07;;;2.10;;
14740;SDS011;7462;53.530;9.414;2023-04-05T12:23:25;3.30;;;2.60;;
14740;SDS011;7462;53.530;9.414;2023-04-05T12:25:54;3.13;;;2.43;;
14740;SDS011;7462;53.530;9.414;2023-04-05T12:28:23;3.97;;;3.00;;
14740;SDS011;7462;53.530;9.414;2023-04-05T12:30:52;3.03;;;2.50;;
14740;SDS011;7462;53.530;9.414;2023-04-05T12:33:27;3.37;;;2.30;;
14740;SDS011;7462;53.530;9.414;2023-04-05T12:35:55;4.60;;;3.30;;
14740;SDS011;7462;53.530;9.414;2023-04-05T12:38:24;5.00;;;3.40;;
14740;SDS011;7462;53.530;9.414;2023-04-05T12:40:53;3.67;;;3.03;;
14740;SDS011;7462;53.530;9.414;2023-04-05T12:43:25;3.83;;;3.03;;
14740;SDS011;7462;53.530;9.414;2023-04-05T12:46:05;4.43;;;2.90;;
14740;SDS011;7462;53.530;9.414;2023-04-05T12:48:37;3.80;;;2.83;;
14740;SDS011;7462;53.530;9.414;2023-04-05T12:51:12;4.20;;;3.10;;
14740;SDS011;7462;53.530;9.414;2023-04-05T12:53:45;3.83;;;2.83;;
14740;SDS011;7462;53.530;9.414;2023-04-05T12:56:14;4.10;;;2.93;;
14740;SDS011;7462;53.530;9.414;2023-04-05T12:58:42;4.83;;;3.47;;
14740;SDS011;7462;53.530;9.414;2023-04-05T13:01:15;4.50;;;2.97;;
14740;SDS011;7462;53.530;9.414;2023-04-05T13:03:44;4.00;;;2.60;;
14740;SDS011;7462;53.530;9.414;2023-04-05T13:06:15;4.00;;;2.90;;
14740;SDS011;7462;53.530;9.414;2023-04-05T13:08:43;4.17;;;3.17;;
14740;SDS011;7462;53.530;9.414;2023-04-05T13:11:11;4.13;;;3.40;;
14740;SDS011;7462;53.530;9.414;2023-04-05T13:13:39;5.27;;;3.53;;
14740;SDS011;7462;53.530;9.414;2023-04-05T13:16:08;7.30;;;3.70;;
14740;SDS011;7462;53.530;9.414;2023-04-05T13:18:36;5.37;;;3.67;;
14740;SDS011;7462;53.530;9.414;2023-04-05T13:21:06;3.90;;;3.50;;
14740;SDS011;7462;53.530;9.414;2023-04-05T13:23:35;5.10;;;3.90;;
14740;SDS011;7462;53.530;9.414;2023-04-05T13:26:06;3.70;;;3.30;;
14740;SDS011;7462;53.530;9.414;2023-04-05T13:28:34;4.70;;;3.70;;
14740;SDS011;7462;53.530;9.414;2023-04-05T13:31:02;4.37;;;3.50;;
14740;SDS011;7462;53.530;9.414;2023-04-05T13:33:33;4.67;;;3.20;;
14740;SDS011;7462;53.530;9.414;2023-04-05T13:36:01;5.73;;;3.50;;
14740;SDS011;7462;53.530;9.414;2023-04-05T13:38:31;4.23;;;3.40;;
14740;SDS011;7462;53.530;9.414;2023-04-05T13:40:59;3.97;;;3.57;;
14740;SDS011;7462;53.530;9.414;2023-04-05T13:43:27;5.00;;;3.33;;
14740;SDS011;7462;53.530;9.414;2023-04-05T13:45:56;4.53;;;3.47;;
14740;SDS011;7462;53.530;9.414;2023-04-05T13:48:24;3.63;;;3.07;;
14740;SDS011;7462;53.530;9.414;2023-04-05T13:50:52;4.27;;;3.40;;
14740;SDS011;7462;53.530;9.414;2023-04-05T13:53:20;3.30;;;3.00;;
14740;SDS011;7462;53.530;9.414;2023-04-05T13:55:50;5.23;;;3.40;;
14740;SDS011;7462;53.530;9.414;2023-04-05T13:58:18;4.07;;;3.20;;
14740;SDS011;7462;53.530;9.414;2023-04-05T14:00:46;3.33;;;2.77;;
14740;SDS011;7462;53.530;9.414;2023-04-05T14:03:14;4.73;;;3.20;;
14740;SDS011;7462;53.530;9.414;2023-04-05T14:05:42;4.93;;;3.70;;
14740;SDS011;7462;53.530;9.414;2023-04-05T14:08:15;3.90;;;3.50;;
14740;SDS011;7462;53.530;9.414;2023-04-05T14:10:44;3.80;;;3.40;;
14740;SDS011;7462;53.530;9.414;2023-04-05T14:13:13;5.27;;;3.80;;
14740;SDS011;7462;53.530;9.414;2023-04-05T14:15:42;4.70;;;3.90;;
14740;SDS011;7462;53.530;9.414;2023-04-05T14:18:11;6.43;;;4.10;;
14740;SDS011;7462;53.530;9.414;2023-04-05T14:20:39;4.27;;;3.73;;
14740;SDS011;7462;53.530;9.414;2023-04-05T14:23:08;4.87;;;3.63;;
14740;SDS011;7462;53.530;9.414;2023-04-05T14:25:36;5.87;;;3.90;;
14740;SDS011;7462;53.530;9.414;2023-04-05T14:28:05;6.93;;;4.00;;
14740;SDS011;7462;53.530;9.414;2023-04-05T14:30:34;7.33;;;4.13;;
14740;SDS011;7462;53.530;9.414;2023-04-05T14:33:02;5.13;;;4.13;;
14740;SDS011;7462;53.530;9.414;2023-04-05T14:35:31;6.10;;;4.20;;
14740;SDS011;7462;53.530;9.414;2023-04-05T14:37:59;5.83;;;3.87;;
14740;SDS011;7462;53.530;9.414;2023-04-05T14:40:27;4.80;;;4.30;;
14740;SDS011;7462;53.530;9.414;2023-04-05T14:42:55;8.13;;;4.53;;
14740;SDS011;7462;53.530;9.414;2023-04-05T14:45:23;5.50;;;4.30;;
14740;SDS011;7462;53.530;9.414;2023-04-05T14:47:53;5.10;;;4.23;;
14740;SDS011;7462;53.530;9.414;2023-04-05T14:50:22;5.20;;;3.90;;
14740;SDS011;7462;53.530;9.414;2023-04-05T14:52:51;5.10;;;4.10;;
14740;SDS011;7462;53.530;9.414;2023-04-05T14:55:19;6.07;;;4.13;;
14740;SDS011;7462;53.530;9.414;2023-04-05T14:57:47;4.57;;;4.00;;
14740;SDS011;7462;53.530;9.414;2023-04-05T15:00:16;6.83;;;3.90;;
14740;SDS011;7462;53.530;9.414;2023-04-05T15:02:45;4.30;;;3.90;;
14740;SDS011;7462;53.530;9.414;2023-04-05T15:05:15;4.47;;;3.77;;
14740;SDS011;7462;53.530;9.414;2023-04-05T15:07:44;4.87;;;3.93;;
14740;SDS011;7462;53.530;9.414;2023-04-05T15:10:12;4.43;;;4.03;;
14740;SDS011;7462;53.530;9.414;2023-04-05T15:12:40;6.77;;;3.83;;
14740;SDS011;7462;53.530;9.414;2023-04-05T15:15:08;4.33;;;3.83;;
14740;SDS011;7462;53.530;9.414;2023-04-05T15:17:37;4.93;;;3.50;;
14740;SDS011;7462;53.530;9.414;2023-04-05T15:20:06;6.47;;;3.90;;
14740;SDS011;7462;53.530;9.414;2023-04-05T15:22:36;5.63;;;3.53;;
14740;SDS011;7462;53.530;9.414;2023-04-05T15:25:06;5.00;;;3.90;;
14740;SDS011;7462;53.530;9.414;2023-04-05T15:27:35;4.97;;;3.97;;
14740;SDS011;7462;53.530;9.414;2023-04-05T15:30:04;4.70;;;4.07;;